sensor_id;sensor_type;location;lat;lon;timestamp;P1;durP1;ratioP1;P2;durP2;ratioP2
19149;SDS011;9707;49.158;8.632;2023-02-28T00:01:25;2.10;;;1.90;;
19149;SDS011;9707;49.158;8.632;2023-02-28T00:03:51;2.30;;;1.83;;
19149;SDS011;9707;49.158;8.632;2023-02-28T00:06:16;3.40;;;2.05;;
19149;SDS011;9707;49.158;8.632;2023-02-28T00:08:42;2.65;;;1.70;;
19149;SDS011;9707;49.158;8.632;2023-02-28T00:11:09;2.08;;;1.85;;
19149;SDS011;9707;49.158;8.632;2023-02-28T00:13:37;2.58;;;1.80;;
19149;SDS011;9707;49.158;8.632;2023-02-28T00:16:04;2.28;;;1.58;;
19149;SDS011;9707;49.158;8.632;2023-02-28T00:18:33;3.05;;;1.67;;
19149;SDS011;9707;49.158;8.632;2023-02-28T00:20:58;2.53;;;1.90;;
19149;SDS011;9707;49.158;8.632;2023-02-28T00:23:24;2.53;;;2.03;;
19149;SDS011;9707;49.158;8.632;2023-02-28T00:25:50;2.63;;;1.85;;
19149;SDS011;9707;49.158;8.632;2023-02-28T00:28:16;3.22;;;2.00;;
19149;SDS011;9707;49.158;8.632;2023-02-28T00:30:42;2.78;;;1.92;;
19149;SDS011;9707;49.158;8.632;2023-02-28T00:33:07;2.38;;;1.77;;
19149;SDS011;9707;49.158;8.632;2023-02-28T00:35:32;2.65;;;2.13;;
19149;SDS011;9707;49.158;8.632;2023-02-28T00:37:58;2.17;;;1.90;;
19149;SDS011;9707;49.158;8.632;2023-02-28T00:40:23;2.33;;;1.80;;
19149;SDS011;9707;49.158;8.632;2023-02-28T00:42:49;2.85;;;2.03;;
19149;SDS011;9707;49.158;8.632;2023-02-28T00:45:14;3.08;;;1.80;;
19149;SDS011;9707;49.158;8.632;2023-02-28T00:47:39;3.55;;;2.50;;
19149;SDS011;9707;49.158;8.632;2023-02-28T00:50:05;2.08;;;1.80;;
19149;SDS011;9707;49.158;8.632;2023-02-28T00:52:31;3.45;;;1.80;;
19149;SDS011;9707;49.158;8.632;2023-02-28T00:54:56;2.60;;;2.13;;
19149;SDS011;9707;49.158;8.632;2023-02-28T00:57:22;3.17;;;1.95;;
19149;SDS011;9707;49.158;8.632;2023-02-28T00:59:47;2.92;;;1.90;;
19149;SDS011;9707;49.158;8.632;2023-02-28T01:02:13;3.33;;;1.70;;
19149;SDS011;9707;49.158;8.632;2023-02-28T01:04:38;4.85;;;2.03;;
19149;SDS011;9707;49.158;8.632;2023-02-28T01:07:04;3.42;;;2.05;;
19149;SDS011;9707;49.158;8.632;2023-02-28T01:09:29;3.22;;;1.90;;
19149;SDS011;9707;49.158;8.632;2023-02-28T01:11:54;2.80;;;2.00;;
19149;SDS011;9707;49.158;8.632;2023-02-28T01:14:20;2.15;;;1.60;;
19149;SDS011;9707;49.158;8.632;2023-02-28T01:16:45;3.08;;;1.63;;
19149;SDS011;9707;49.158;8.632;2023-02-28T01:19:11;3.00;;;2.15;;
19149;SDS011;9707;49.158;8.632;2023-02-28T01:21:36;2.38;;;1.83;;
19149;SDS011;9707;49.158;8.632;2023-02-28T01:24:02;2.92;;;2.20;;
19149;SDS011;9707;49.158;8.632;2023-02-28T01:26:29;2.67;;;1.85;;
19149;SDS011;9707;49.158;8.632;2023-02-28T01:28:54;2.75;;;2.22;;
19149;SDS011;9707;49.158;8.632;2023-02-28T01:31:20;3.67;;;1.92;;
19149;SDS011;9707;49.158;8.632;2023-02-28T01:33:46;3.03;;;2.30;;
19149;SDS011;9707;49.158;8.632;2023-02-28T01:36:16;3.83;;;2.20;;
19149;SDS011;9707;49.158;8.632;2023-02-28T01:38:43;3.67;;;1.90;;
19149;SDS011;9707;49.158;8.632;2023-02-28T01:41:10;2.75;;;2.15;;
19149;SDS011;9707;49.158;8.632;2023-02-28T01:46:07;2.60;;;1.85;;
19149;SDS011;9707;49.158;8.632;2023-02-28T01:48:32;2.92;;;2.10;;
19149;SDS011;9707;49.158;8.632;2023-02-28T01:51:05;2.15;;;1.80;;
19149;SDS011;9707;49.158;8.632;2023-02-28T01:53:39;3.55;;;2.00;;
19149;SDS011;9707;49.158;8.632;2023-02-28T01:56:09;2.65;;;2.13;;
19149;SDS011;9707;49.158;8.632;2023-02-28T01:58:38;3.17;;;2.50;;
19149;SDS011;9707;49.158;8.632;2023-02-28T02:01:03;2.70;;;2.10;;
19149;SDS011;9707;49.158;8.632;2023-02-28T02:03:29;3.58;;;2.13;;
19149;SDS011;9707;49.158;8.632;2023-02-28T02:05:55;3.60;;;2.10;;
19149;SDS011;9707;49.158;8.632;2023-02-28T02:08:22;3.35;;;2.13;;
19149;SDS011;9707;49.158;8.632;2023-02-28T02:10:51;3.47;;;2.30;;
19149;SDS011;9707;49.158;8.632;2023-02-28T02:18:38;2.97;;;2.05;;
19149;SDS011;9707;49.158;8.632;2023-02-28T02:32:45;4.32;;;2.28;;
19149;SDS011;9707;49.158;8.632;2023-02-28T02:35:31;3.10;;;1.95;;
19149;SDS011;9707;49.158;8.632;2023-02-28T02:38:10;2.95;;;2.03;;
19149;SDS011;9707;49.158;8.632;2023-02-28T02:40:51;5.57;;;2.33;;
19149;SDS011;9707;49.158;8.632;2023-02-28T02:43:25;4.28;;;2.30;;
19149;SDS011;9707;49.158;8.632;2023-02-28T02:45:54;4.05;;;2.35;;
19149;SDS011;9707;49.158;8.632;2023-02-28T02:48:25;3.28;;;2.20;;
19149;SDS011;9707;49.158;8.632;2023-02-28T02:50:55;2.50;;;1.92;;
19149;SDS011;9707;49.158;8.632;2023-02-28T02:53:30;2.88;;;2.33;;
19149;SDS011;9707;49.158;8.632;2023-02-28T02:56:00;3.10;;;2.15;;
19149;SDS011;9707;49.158;8.632;2023-02-28T02:58:31;3.10;;;2.45;;
19149;SDS011;9707;49.158;8.632;2023-02-28T03:01:06;5.32;;;2.63;;
19149;SDS011;9707;49.158;8.632;2023-02-28T03:03:35;3.22;;;2.30;;
19149;SDS011;9707;49.158;8.632;2023-02-28T03:06:01;2.88;;;2.25;;
19149;SDS011;9707;49.158;8.632;2023-02-28T03:08:27;3.75;;;2.53;;
19149;SDS011;9707;49.158;8.632;2023-02-28T03:10:57;4.95;;;2.80;;
19149;SDS011;9707;49.158;8.632;2023-02-28T03:19:03;3.30;;;2.30;;
19149;SDS011;9707;49.158;8.632;2023-02-28T03:21:55;3.15;;;2.05;;
19149;SDS011;9707;49.158;8.632;2023-02-28T03:24:35;4.25;;;2.50;;
19149;SDS011;9707;49.158;8.632;2023-02-28T03:27:05;3.05;;;2.47;;
19149;SDS011;9707;49.158;8.632;2023-02-28T03:29:35;3.88;;;2.72;;
19149;SDS011;9707;49.158;8.632;2023-02-28T03:34:48;3.13;;;2.38;;
19149;SDS011;9707;49.158;8.632;2023-02-28T03:37:22;4.43;;;2.67;;
19149;SDS011;9707;49.158;8.632;2023-02-28T03:39:53;5.07;;;2.80;;
19149;SDS011;9707;49.158;8.632;2023-02-28T03:42:25;4.25;;;2.75;;
19149;SDS011;9707;49.158;8.632;2023-02-28T03:44:54;3.47;;;2.17;;
19149;SDS011;9707;49.158;8.632;2023-02-28T03:47:35;2.13;;;1.90;;
19149;SDS011;9707;49.158;8.632;2023-02-28T03:50:38;3.17;;;2.70;;
19149;SDS011;9707;49.158;8.632;2023-02-28T03:53:11;3.40;;;2.50;;
19149;SDS011;9707;49.158;8.632;2023-02-28T03:55:45;4.75;;;2.40;;
19149;SDS011;9707;49.158;8.632;2023-02-28T04:00:48;3.70;;;2.90;;
19149;SDS011;9707;49.158;8.632;2023-02-28T04:03:20;3.33;;;2.15;;
19149;SDS011;9707;49.158;8.632;2023-02-28T04:05:54;3.28;;;2.60;;
19149;SDS011;9707;49.158;8.632;2023-02-28T04:08:22;4.22;;;2.63;;
19149;SDS011;9707;49.158;8.632;2023-02-28T04:10:51;3.63;;;2.80;;
19149;SDS011;9707;49.158;8.632;2023-02-28T04:13:22;3.85;;;3.17;;
19149;SDS011;9707;49.158;8.632;2023-02-28T04:15:47;3.28;;;2.45;;
19149;SDS011;9707;49.158;8.632;2023-02-28T04:18:13;3.75;;;2.40;;
19149;SDS011;9707;49.158;8.632;2023-02-28T04:20:38;3.92;;;3.10;;
19149;SDS011;9707;49.158;8.632;2023-02-28T04:23:03;3.22;;;2.90;;
19149;SDS011;9707;49.158;8.632;2023-02-28T04:25:29;4.05;;;2.85;;
19149;SDS011;9707;49.158;8.632;2023-02-28T04:27:54;4.85;;;2.97;;
19149;SDS011;9707;49.158;8.632;2023-02-28T04:30:19;3.75;;;2.97;;
19149;SDS011;9707;49.158;8.632;2023-02-28T04:32:45;3.95;;;3.22;;
19149;SDS011;9707;49.158;8.632;2023-02-28T04:35:10;4.53;;;3.25;;
19149;SDS011;9707;49.158;8.632;2023-02-28T04:37:35;4.72;;;2.95;;
19149;SDS011;9707;49.158;8.632;2023-02-28T04:40:01;3.83;;;2.97;;
19149;SDS011;9707;49.158;8.632;2023-02-28T04:42:28;5.13;;;2.78;;
19149;SDS011;9707;49.158;8.632;2023-02-28T04:45:00;3.70;;;3.13;;
19149;SDS011;9707;49.158;8.632;2023-02-28T04:47:25;5.93;;;3.05;;
19149;SDS011;9707;49.158;8.632;2023-02-28T04:49:50;3.75;;;2.95;;
19149;SDS011;9707;49.158;8.632;2023-02-28T04:52:15;4.63;;;3.40;;
19149;SDS011;9707;49.158;8.632;2023-02-28T04:54:41;4.18;;;3.17;;
19149;SDS011;9707;49.158;8.632;2023-02-28T04:57:06;3.72;;;3.28;;
19149;SDS011;9707;49.158;8.632;2023-02-28T04:59:31;3.75;;;3.00;;
19149;SDS011;9707;49.158;8.632;2023-02-28T05:01:57;5.38;;;3.03;;
19149;SDS011;9707;49.158;8.632;2023-02-28T05:04:22;3.80;;;3.00;;
19149;SDS011;9707;49.158;8.632;2023-02-28T05:06:48;3.58;;;2.95;;
19149;SDS011;9707;49.158;8.632;2023-02-28T05:09:13;4.68;;;3.55;;
19149;SDS011;9707;49.158;8.632;2023-02-28T05:11:41;3.80;;;3.25;;
19149;SDS011;9707;49.158;8.632;2023-02-28T05:14:10;3.60;;;2.92;;
19149;SDS011;9707;49.158;8.632;2023-02-28T05:16:38;5.72;;;3.38;;
19149;SDS011;9707;49.158;8.632;2023-02-28T05:19:03;4.38;;;3.17;;
19149;SDS011;9707;49.158;8.632;2023-02-28T05:21:29;3.78;;;2.85;;
19149;SDS011;9707;49.158;8.632;2023-02-28T05:24:04;4.43;;;3.05;;
19149;SDS011;9707;49.158;8.632;2023-02-28T05:26:33;4.13;;;3.13;;
19149;SDS011;9707;49.158;8.632;2023-02-28T05:29:00;4.90;;;3.85;;
19149;SDS011;9707;49.158;8.632;2023-02-28T05:31:26;4.25;;;3.20;;
19149;SDS011;9707;49.158;8.632;2023-02-28T05:33:53;5.32;;;3.75;;
19149;SDS011;9707;49.158;8.632;2023-02-28T05:36:19;5.18;;;3.25;;
19149;SDS011;9707;49.158;8.632;2023-02-28T05:38:48;4.65;;;3.50;;
19149;SDS011;9707;49.158;8.632;2023-02-28T05:41:14;4.90;;;3.58;;
19149;SDS011;9707;49.158;8.632;2023-02-28T05:43:40;4.20;;;3.25;;
19149;SDS011;9707;49.158;8.632;2023-02-28T05:46:05;4.97;;;3.72;;
19149;SDS011;9707;49.158;8.632;2023-02-28T05:48:33;3.00;;;2.63;;
19149;SDS011;9707;49.158;8.632;2023-02-28T05:50:59;4.35;;;2.80;;
19149;SDS011;9707;49.158;8.632;2023-02-28T05:53:24;4.28;;;3.28;;
19149;SDS011;9707;49.158;8.632;2023-02-28T05:55:51;4.85;;;3.15;;
19149;SDS011;9707;49.158;8.632;2023-02-28T05:58:16;5.20;;;3.45;;
19149;SDS011;9707;49.158;8.632;2023-02-28T06:00:41;4.03;;;3.28;;
19149;SDS011;9707;49.158;8.632;2023-02-28T06:03:07;4.38;;;3.30;;
19149;SDS011;9707;49.158;8.632;2023-02-28T06:05:32;4.88;;;3.40;;
19149;SDS011;9707;49.158;8.632;2023-02-28T06:07:58;4.28;;;3.33;;
19149;SDS011;9707;49.158;8.632;2023-02-28T06:10:23;7.32;;;5.43;;
19149;SDS011;9707;49.158;8.632;2023-02-28T06:12:48;5.70;;;4.07;;
19149;SDS011;9707;49.158;8.632;2023-02-28T06:15:14;3.95;;;2.53;;
19149;SDS011;9707;49.158;8.632;2023-02-28T06:17:41;6.95;;;3.78;;
19149;SDS011;9707;49.158;8.632;2023-02-28T06:20:07;4.38;;;3.63;;
19149;SDS011;9707;49.158;8.632;2023-02-28T06:22:34;4.80;;;3.80;;
19149;SDS011;9707;49.158;8.632;2023-02-28T06:25:00;5.90;;;3.50;;
19149;SDS011;9707;49.158;8.632;2023-02-28T06:27:26;4.85;;;3.65;;
19149;SDS011;9707;49.158;8.632;2023-02-28T06:29:53;5.35;;;3.97;;
19149;SDS011;9707;49.158;8.632;2023-02-28T06:32:19;6.57;;;3.22;;
19149;SDS011;9707;49.158;8.632;2023-02-28T06:34:45;5.28;;;3.42;;
19149;SDS011;9707;49.158;8.632;2023-02-28T06:37:10;5.55;;;3.97;;
19149;SDS011;9707;49.158;8.632;2023-02-28T06:39:36;4.95;;;3.60;;
19149;SDS011;9707;49.158;8.632;2023-02-28T06:42:01;6.57;;;4.38;;
19149;SDS011;9707;49.158;8.632;2023-02-28T06:44:26;4.25;;;3.25;;
19149;SDS011;9707;49.158;8.632;2023-02-28T06:46:51;5.45;;;3.75;;
19149;SDS011;9707;49.158;8.632;2023-02-28T06:49:17;5.15;;;3.22;;
19149;SDS011;9707;49.158;8.632;2023-02-28T06:51:43;7.00;;;3.90;;
19149;SDS011;9707;49.158;8.632;2023-02-28T06:54:12;4.78;;;3.20;;
19149;SDS011;9707;49.158;8.632;2023-02-28T06:56:37;4.85;;;3.90;;
19149;SDS011;9707;49.158;8.632;2023-02-28T06:59:03;5.18;;;3.63;;
19149;SDS011;9707;49.158;8.632;2023-02-28T07:01:29;4.28;;;3.00;;
19149;SDS011;9707;49.158;8.632;2023-02-28T07:03:56;3.92;;;3.53;;
19149;SDS011;9707;49.158;8.632;2023-02-28T07:06:22;5.35;;;3.60;;
19149;SDS011;9707;49.158;8.632;2023-02-28T07:08:49;3.92;;;3.47;;
19149;SDS011;9707;49.158;8.632;2023-02-28T07:11:16;4.80;;;3.35;;
19149;SDS011;9707;49.158;8.632;2023-02-28T07:13:42;9.65;;;4.47;;
19149;SDS011;9707;49.158;8.632;2023-02-28T07:16:09;4.80;;;3.90;;
19149;SDS011;9707;49.158;8.632;2023-02-28T07:18:36;5.32;;;3.78;;
19149;SDS011;9707;49.158;8.632;2023-02-28T07:21:02;5.38;;;4.00;;
19149;SDS011;9707;49.158;8.632;2023-02-28T07:23:32;5.70;;;3.60;;
19149;SDS011;9707;49.158;8.632;2023-02-28T07:25:57;5.07;;;3.65;;
19149;SDS011;9707;49.158;8.632;2023-02-28T07:28:23;5.57;;;3.25;;
19149;SDS011;9707;49.158;8.632;2023-02-28T07:30:48;4.32;;;3.72;;
19149;SDS011;9707;49.158;8.632;2023-02-28T07:33:14;5.57;;;3.47;;
19149;SDS011;9707;49.158;8.632;2023-02-28T07:35:39;6.03;;;4.20;;
19149;SDS011;9707;49.158;8.632;2023-02-28T07:38:04;4.90;;;3.88;;
19149;SDS011;9707;49.158;8.632;2023-02-28T07:40:32;5.50;;;4.72;;
19149;SDS011;9707;49.158;8.632;2023-02-28T07:42:59;11.38;;;6.78;;
19149;SDS011;9707;49.158;8.632;2023-02-28T07:45:28;11.40;;;5.88;;
19149;SDS011;9707;49.158;8.632;2023-02-28T07:47:54;11.23;;;6.55;;
19149;SDS011;9707;49.158;8.632;2023-02-28T07:50:20;12.13;;;6.93;;
19149;SDS011;9707;49.158;8.632;2023-02-28T07:52:46;10.23;;;6.05;;
19149;SDS011;9707;49.158;8.632;2023-02-28T07:55:12;13.73;;;7.63;;
19149;SDS011;9707;49.158;8.632;2023-02-28T07:57:38;8.65;;;5.38;;
19149;SDS011;9707;49.158;8.632;2023-02-28T08:00:04;8.13;;;5.20;;
19149;SDS011;9707;49.158;8.632;2023-02-28T08:02:31;7.22;;;4.43;;
19149;SDS011;9707;49.158;8.632;2023-02-28T08:04:56;4.85;;;4.18;;
19149;SDS011;9707;49.158;8.632;2023-02-28T08:07:22;5.50;;;3.75;;
19149;SDS011;9707;49.158;8.632;2023-02-28T08:09:47;4.38;;;3.72;;
19149;SDS011;9707;49.158;8.632;2023-02-28T08:12:12;7.00;;;4.30;;
19149;SDS011;9707;49.158;8.632;2023-02-28T08:14:37;5.28;;;4.10;;
19149;SDS011;9707;49.158;8.632;2023-02-28T08:17:03;5.13;;;3.80;;
19149;SDS011;9707;49.158;8.632;2023-02-28T08:19:29;5.18;;;4.03;;
19149;SDS011;9707;49.158;8.632;2023-02-28T08:21:55;4.45;;;3.33;;
19149;SDS011;9707;49.158;8.632;2023-02-28T08:24:20;4.55;;;3.50;;
19149;SDS011;9707;49.158;8.632;2023-02-28T08:26:46;13.40;;;5.03;;
19149;SDS011;9707;49.158;8.632;2023-02-28T08:29:11;5.25;;;4.60;;
19149;SDS011;9707;49.158;8.632;2023-02-28T08:31:37;6.13;;;4.00;;
19149;SDS011;9707;49.158;8.632;2023-02-28T08:34:06;7.85;;;4.32;;
19149;SDS011;9707;49.158;8.632;2023-02-28T08:36:33;6.30;;;4.20;;
19149;SDS011;9707;49.158;8.632;2023-02-28T08:38:58;5.75;;;4.57;;
19149;SDS011;9707;49.158;8.632;2023-02-28T08:41:24;5.28;;;3.80;;
19149;SDS011;9707;49.158;8.632;2023-02-28T08:43:50;6.53;;;4.20;;
19149;SDS011;9707;49.158;8.632;2023-02-28T08:46:18;5.82;;;4.40;;
19149;SDS011;9707;49.158;8.632;2023-02-28T08:48:44;6.05;;;4.25;;
19149;SDS011;9707;49.158;8.632;2023-02-28T08:51:11;6.47;;;4.55;;
19149;SDS011;9707;49.158;8.632;2023-02-28T08:53:43;4.82;;;3.42;;
19149;SDS011;9707;49.158;8.632;2023-02-28T08:56:10;7.30;;;3.97;;
19149;SDS011;9707;49.158;8.632;2023-02-28T08:58:39;5.78;;;4.55;;
19149;SDS011;9707;49.158;8.632;2023-02-28T09:01:47;5.55;;;3.92;;
19149;SDS011;9707;49.158;8.632;2023-02-28T09:03:54;6.50;;;3.88;;
19149;SDS011;9707;49.158;8.632;2023-02-28T09:06:21;6.00;;;5.18;;
19149;SDS011;9707;49.158;8.632;2023-02-28T09:08:48;6.95;;;5.07;;
19149;SDS011;9707;49.158;8.632;2023-02-28T09:11:14;6.93;;;4.60;;
19149;SDS011;9707;49.158;8.632;2023-02-28T09:13:40;9.00;;;5.30;;
19149;SDS011;9707;49.158;8.632;2023-02-28T09:16:06;5.97;;;4.47;;
19149;SDS011;9707;49.158;8.632;2023-02-28T09:18:34;6.90;;;4.88;;
19149;SDS011;9707;49.158;8.632;2023-02-28T09:21:04;7.20;;;5.05;;
19149;SDS011;9707;49.158;8.632;2023-02-28T09:23:30;7.45;;;5.30;;
19149;SDS011;9707;49.158;8.632;2023-02-28T09:25:56;7.00;;;4.80;;
19149;SDS011;9707;49.158;8.632;2023-02-28T09:28:23;7.85;;;6.03;;
19149;SDS011;9707;49.158;8.632;2023-02-28T09:30:50;7.38;;;4.85;;
19149;SDS011;9707;49.158;8.632;2023-02-28T09:33:18;6.15;;;5.00;;
19149;SDS011;9707;49.158;8.632;2023-02-28T09:35:46;5.75;;;4.50;;
19149;SDS011;9707;49.158;8.632;2023-02-28T09:38:11;7.13;;;4.45;;
19149;SDS011;9707;49.158;8.632;2023-02-28T09:40:46;6.40;;;5.10;;
19149;SDS011;9707;49.158;8.632;2023-02-28T09:43:19;5.82;;;4.80;;
19149;SDS011;9707;49.158;8.632;2023-02-28T09:45:52;6.75;;;4.97;;
19149;SDS011;9707;49.158;8.632;2023-02-28T09:48:26;4.88;;;3.67;;
19149;SDS011;9707;49.158;8.632;2023-02-28T09:51:00;5.78;;;4.13;;
19149;SDS011;9707;49.158;8.632;2023-02-28T09:53:30;5.93;;;4.97;;
19149;SDS011;9707;49.158;8.632;2023-02-28T09:56:18;6.90;;;5.15;;
19149;SDS011;9707;49.158;8.632;2023-02-28T09:59:01;7.53;;;5.35;;
19149;SDS011;9707;49.158;8.632;2023-02-28T10:06:41;6.72;;;4.85;;
19149;SDS011;9707;49.158;8.632;2023-02-28T10:09:14;7.90;;;5.35;;
19149;SDS011;9707;49.158;8.632;2023-02-28T10:11:45;7.35;;;5.50;;
19149;SDS011;9707;49.158;8.632;2023-02-28T10:16:38;7.88;;;5.30;;
19149;SDS011;9707;49.158;8.632;2023-02-28T10:19:15;8.98;;;5.63;;
19149;SDS011;9707;49.158;8.632;2023-02-28T10:21:49;6.28;;;5.43;;
19149;SDS011;9707;49.158;8.632;2023-02-28T10:29:43;6.75;;;3.22;;
19149;SDS011;9707;49.158;8.632;2023-02-28T10:32:10;7.43;;;4.10;;
19149;SDS011;9707;49.158;8.632;2023-02-28T10:34:40;5.10;;;3.60;;
19149;SDS011;9707;49.158;8.632;2023-02-28T10:37:05;6.88;;;4.68;;
19149;SDS011;9707;49.158;8.632;2023-02-28T10:39:36;7.05;;;5.47;;
19149;SDS011;9707;49.158;8.632;2023-02-28T10:42:04;6.90;;;4.72;;
19149;SDS011;9707;49.158;8.632;2023-02-28T10:44:43;5.50;;;4.25;;
19149;SDS011;9707;49.158;8.632;2023-02-28T10:47:13;6.25;;;5.07;;
19149;SDS011;9707;49.158;8.632;2023-02-28T10:49:46;6.50;;;4.10;;
19149;SDS011;9707;49.158;8.632;2023-02-28T10:52:13;6.55;;;5.70;;
19149;SDS011;9707;49.158;8.632;2023-02-28T10:54:39;8.73;;;5.28;;
19149;SDS011;9707;49.158;8.632;2023-02-28T10:57:19;7.00;;;4.38;;
19149;SDS011;9707;49.158;8.632;2023-02-28T10:59:50;6.15;;;4.22;;
19149;SDS011;9707;49.158;8.632;2023-02-28T11:02:36;6.63;;;5.13;;
19149;SDS011;9707;49.158;8.632;2023-02-28T11:08:05;6.18;;;3.47;;
19149;SDS011;9707;49.158;8.632;2023-02-28T11:10:37;6.60;;;4.22;;
19149;SDS011;9707;49.158;8.632;2023-02-28T11:13:03;6.15;;;5.05;;
19149;SDS011;9707;49.158;8.632;2023-02-28T11:15:30;10.25;;;5.95;;
19149;SDS011;9707;49.158;8.632;2023-02-28T11:20:48;7.18;;;5.93;;
19149;SDS011;9707;49.158;8.632;2023-02-28T11:23:15;10.55;;;6.00;;
19149;SDS011;9707;49.158;8.632;2023-02-28T11:25:46;5.40;;;4.25;;
19149;SDS011;9707;49.158;8.632;2023-02-28T11:31:06;6.82;;;4.93;;
19149;SDS011;9707;49.158;8.632;2023-02-28T11:33:43;9.13;;;6.10;;
19149;SDS011;9707;49.158;8.632;2023-02-28T11:36:20;7.25;;;6.45;;
19149;SDS011;9707;49.158;8.632;2023-02-28T11:38:50;8.98;;;6.57;;
19149;SDS011;9707;49.158;8.632;2023-02-28T11:52:10;5.93;;;4.53;;
19149;SDS011;9707;49.158;8.632;2023-02-28T12:02:43;7.13;;;5.90;;
19149;SDS011;9707;49.158;8.632;2023-02-28T12:08:23;6.53;;;5.50;;
19149;SDS011;9707;49.158;8.632;2023-02-28T12:13:47;7.22;;;5.65;;
19149;SDS011;9707;49.158;8.632;2023-02-28T12:16:25;7.05;;;6.35;;
19149;SDS011;9707;49.158;8.632;2023-02-28T12:19:02;8.90;;;5.95;;
19149;SDS011;9707;49.158;8.632;2023-02-28T12:27:11;6.82;;;5.97;;
19149;SDS011;9707;49.158;8.632;2023-02-28T12:29:45;7.22;;;6.22;;
19149;SDS011;9707;49.158;8.632;2023-02-28T12:32:26;8.82;;;6.40;;
19149;SDS011;9707;49.158;8.632;2023-02-28T12:34:57;9.45;;;6.35;;
19149;SDS011;9707;49.158;8.632;2023-02-28T12:37:31;8.98;;;6.25;;
19149;SDS011;9707;49.158;8.632;2023-02-28T12:40:05;7.38;;;5.32;;
19149;SDS011;9707;49.158;8.632;2023-02-28T12:42:39;9.70;;;6.75;;
19149;SDS011;9707;49.158;8.632;2023-02-28T12:45:25;8.52;;;6.35;;
19149;SDS011;9707;49.158;8.632;2023-02-28T12:47:58;9.68;;;6.50;;
19149;SDS011;9707;49.158;8.632;2023-02-28T12:50:27;9.23;;;6.25;;
19149;SDS011;9707;49.158;8.632;2023-02-28T12:53:00;7.28;;;6.35;;
19149;SDS011;9707;49.158;8.632;2023-02-28T12:58:42;7.43;;;6.72;;
19149;SDS011;9707;49.158;8.632;2023-02-28T13:04:21;9.25;;;6.07;;
19149;SDS011;9707;49.158;8.632;2023-02-28T13:09:41;6.57;;;5.65;;
19149;SDS011;9707;49.158;8.632;2023-02-28T13:12:24;6.05;;;4.82;;
19149;SDS011;9707;49.158;8.632;2023-02-28T13:14:50;8.93;;;6.07;;
19149;SDS011;9707;49.158;8.632;2023-02-28T13:17:26;8.88;;;6.50;;
19149;SDS011;9707;49.158;8.632;2023-02-28T13:23:01;8.43;;;6.70;;
19149;SDS011;9707;49.158;8.632;2023-02-28T13:27:54;6.10;;;4.40;;
19149;SDS011;9707;49.158;8.632;2023-02-28T13:33:27;8.63;;;6.75;;
19149;SDS011;9707;49.158;8.632;2023-02-28T13:36:08;8.40;;;6.00;;
19149;SDS011;9707;49.158;8.632;2023-02-28T13:38:35;7.47;;;6.28;;
19149;SDS011;9707;49.158;8.632;2023-02-28T13:44:02;8.27;;;6.28;;
19149;SDS011;9707;49.158;8.632;2023-02-28T13:46:34;6.72;;;5.32;;
19149;SDS011;9707;49.158;8.632;2023-02-28T14:00:13;8.85;;;7.68;;
19149;SDS011;9707;49.158;8.632;2023-02-28T14:06:08;9.10;;;5.32;;
19149;SDS011;9707;49.158;8.632;2023-02-28T14:08:51;6.55;;;5.43;;
19149;SDS011;9707;49.158;8.632;2023-02-28T14:11:37;9.63;;;6.32;;
19149;SDS011;9707;49.158;8.632;2023-02-28T14:14:05;9.23;;;6.68;;
19149;SDS011;9707;49.158;8.632;2023-02-28T14:19:09;8.27;;;7.00;;
19149;SDS011;9707;49.158;8.632;2023-02-28T14:21:39;6.38;;;4.60;;
19149;SDS011;9707;49.158;8.632;2023-02-28T14:33:14;8.30;;;6.78;;
19149;SDS011;9707;49.158;8.632;2023-02-28T14:38:52;6.95;;;6.25;;
19149;SDS011;9707;49.158;8.632;2023-02-28T14:41:24;7.55;;;5.20;;
19149;SDS011;9707;49.158;8.632;2023-02-28T14:43:57;8.88;;;5.18;;
19149;SDS011;9707;49.158;8.632;2023-02-28T14:46:25;10.50;;;6.95;;
19149;SDS011;9707;49.158;8.632;2023-02-28T14:48:54;9.23;;;6.88;;
19149;SDS011;9707;49.158;8.632;2023-02-28T14:51:21;8.32;;;6.28;;
19149;SDS011;9707;49.158;8.632;2023-02-28T14:53:52;12.38;;;7.70;;
19149;SDS011;9707;49.158;8.632;2023-02-28T14:56:43;8.18;;;6.57;;
19149;SDS011;9707;49.158;8.632;2023-02-28T15:02:15;7.47;;;6.60;;
19149;SDS011;9707;49.158;8.632;2023-02-28T15:05:01;8.77;;;6.97;;
19149;SDS011;9707;49.158;8.632;2023-02-28T15:07:34;9.75;;;6.35;;
19149;SDS011;9707;49.158;8.632;2023-02-28T15:10:10;12.02;;;7.70;;
19149;SDS011;9707;49.158;8.632;2023-02-28T15:13:00;7.35;;;5.85;;
19149;SDS011;9707;49.158;8.632;2023-02-28T15:15:40;8.10;;;6.18;;
19149;SDS011;9707;49.158;8.632;2023-02-28T15:18:10;7.18;;;5.47;;
19149;SDS011;9707;49.158;8.632;2023-02-28T15:20:46;9.65;;;7.88;;
19149;SDS011;9707;49.158;8.632;2023-02-28T15:23:12;10.48;;;7.88;;
19149;SDS011;9707;49.158;8.632;2023-02-28T15:25:40;9.35;;;7.22;;
19149;SDS011;9707;49.158;8.632;2023-02-28T15:28:09;9.32;;;7.47;;
19149;SDS011;9707;49.158;8.632;2023-02-28T15:30:39;8.82;;;7.50;;
19149;SDS011;9707;49.158;8.632;2023-02-28T15:35:33;10.98;;;7.80;;
19149;SDS011;9707;49.158;8.632;2023-02-28T15:38:03;8.10;;;7.18;;
19149;SDS011;9707;49.158;8.632;2023-02-28T15:40:43;8.20;;;6.55;;
19149;SDS011;9707;49.158;8.632;2023-02-28T15:43:14;9.13;;;7.20;;
19149;SDS011;9707;49.158;8.632;2023-02-28T15:45:46;9.07;;;7.38;;
19149;SDS011;9707;49.158;8.632;2023-02-28T15:50:48;10.38;;;8.00;;
19149;SDS011;9707;49.158;8.632;2023-02-28T15:53:18;8.68;;;6.60;;
19149;SDS011;9707;49.158;8.632;2023-02-28T15:56:22;8.20;;;6.47;;
19149;SDS011;9707;49.158;8.632;2023-02-28T15:58:44;9.73;;;7.25;;
19149;SDS011;9707;49.158;8.632;2023-02-28T16:01:18;10.10;;;6.75;;
19149;SDS011;9707;49.158;8.632;2023-02-28T16:03:49;9.75;;;7.93;;
19149;SDS011;9707;49.158;8.632;2023-02-28T16:08:41;8.30;;;7.00;;
19149;SDS011;9707;49.158;8.632;2023-02-28T16:11:08;9.48;;;6.88;;
19149;SDS011;9707;49.158;8.632;2023-02-28T16:13:35;10.07;;;7.68;;
19149;SDS011;9707;49.158;8.632;2023-02-28T16:16:00;7.85;;;6.38;;
19149;SDS011;9707;49.158;8.632;2023-02-28T16:18:26;8.77;;;7.38;;
19149;SDS011;9707;49.158;8.632;2023-02-28T16:20:51;7.70;;;6.78;;
19149;SDS011;9707;49.158;8.632;2023-02-28T16:23:17;11.63;;;7.00;;
19149;SDS011;9707;49.158;8.632;2023-02-28T16:25:42;8.90;;;7.53;;
19149;SDS011;9707;49.158;8.632;2023-02-28T16:28:32;8.35;;;7.45;;
19149;SDS011;9707;49.158;8.632;2023-02-28T16:30:59;9.68;;;6.95;;
19149;SDS011;9707;49.158;8.632;2023-02-28T16:33:27;8.13;;;6.07;;
19149;SDS011;9707;49.158;8.632;2023-02-28T16:35:52;10.65;;;7.72;;
19149;SDS011;9707;49.158;8.632;2023-02-28T16:38:18;9.23;;;7.25;;
19149;SDS011;9707;49.158;8.632;2023-02-28T16:40:44;8.38;;;7.18;;
19149;SDS011;9707;49.158;8.632;2023-02-28T16:43:13;10.27;;;7.15;;
19149;SDS011;9707;49.158;8.632;2023-02-28T16:45:42;8.88;;;6.57;;
19149;SDS011;9707;49.158;8.632;2023-02-28T16:48:10;12.95;;;8.30;;
19149;SDS011;9707;49.158;8.632;2023-02-28T16:50:40;9.18;;;7.00;;
19149;SDS011;9707;49.158;8.632;2023-02-28T16:53:05;17.15;;;12.20;;
19149;SDS011;9707;49.158;8.632;2023-02-28T16:55:31;12.77;;;9.63;;
19149;SDS011;9707;49.158;8.632;2023-02-28T16:57:57;11.27;;;8.32;;
19149;SDS011;9707;49.158;8.632;2023-02-28T17:00:24;9.38;;;8.18;;
19149;SDS011;9707;49.158;8.632;2023-02-28T17:02:50;11.98;;;8.88;;
19149;SDS011;9707;49.158;8.632;2023-02-28T17:05:16;11.55;;;8.68;;
19149;SDS011;9707;49.158;8.632;2023-02-28T17:07:43;14.05;;;9.52;;
19149;SDS011;9707;49.158;8.632;2023-02-28T17:10:18;11.60;;;9.45;;
19149;SDS011;9707;49.158;8.632;2023-02-28T17:12:46;13.40;;;9.13;;
19149;SDS011;9707;49.158;8.632;2023-02-28T17:15:12;10.80;;;8.35;;
19149;SDS011;9707;49.158;8.632;2023-02-28T17:17:39;9.45;;;7.80;;
19149;SDS011;9707;49.158;8.632;2023-02-28T17:20:07;10.85;;;7.72;;
19149;SDS011;9707;49.158;8.632;2023-02-28T17:22:47;9.48;;;7.50;;
19149;SDS011;9707;49.158;8.632;2023-02-28T17:25:12;9.63;;;7.50;;
19149;SDS011;9707;49.158;8.632;2023-02-28T17:27:38;11.85;;;7.80;;
19149;SDS011;9707;49.158;8.632;2023-02-28T17:30:09;9.93;;;7.22;;
19149;SDS011;9707;49.158;8.632;2023-02-28T17:32:40;8.73;;;6.50;;
19149;SDS011;9707;49.158;8.632;2023-02-28T17:35:06;9.90;;;7.63;;